Time;durP1;ratioP1;P1;durP2;ratioP2;P2;SDS_P1;SDS_P2;PMS_P1;PMS_P2;Temp;Humidity;BMP_temperature;BMP_pressure;BME280_temperature;BME280_humidity;BME280_pressure;Samples;Min_cycle;Max_cycle;Signal;HPM_P1;HPM_P2
2023/06/17 00:02:12;;;;;;;10.10;8.30;;;;;;;13.97;100.00;100312.63;104804;1264;69224;-58
2023/06/17 00:04:43;;;;;;;11.50;8.80;;;;;;;13.97;100.00;100309.64;104898;1264;75599;-57
2023/06/17 00:07:12;;;;;;;10.20;7.80;;;;;;;13.97;100.00;100305.95;104786;1259;83278;-59
2023/06/17 00:09:44;;;;;;;12.50;8.10;;;;;;;13.95;99.99;100303.59;104947;1260;73790;-57
2023/06/17 00:12:15;;;;;;;12.80;8.30;;;;;;;13.94;100.00;100299.80;104985;1264;69189;-58
2023/06/17 00:14:47;;;;;;;12.50;8.40;;;;;;;13.97;100.00;100298.96;104954;1264;69192;-55
2023/06/17 00:17:21;;;;;;;9.90;8.20;;;;;;;13.97;100.00;100296.84;104987;1264;75306;-58
2023/06/17 00:19:50;;;;;;;9.00;8.10;;;;;;;13.96;100.00;100297.39;104877;1264;83651;-56
2023/06/17 00:22:19;;;;;;;10.10;7.60;;;;;;;13.96;100.00;100298.44;104821;1259;73771;-58
2023/06/17 00:24:47;;;;;;;9.00;7.50;;;;;;;13.95;100.00;100302.38;104944;1264;69134;-59
2023/06/17 00:27:22;;;;;;;8.60;7.70;;;;;;;13.90;100.00;100302.66;104819;1260;69560;-61
2023/06/17 00:29:53;;;;;;;11.90;7.90;;;;;;;13.82;99.97;100297.77;104928;1264;75698;-58
2023/06/17 00:32:24;;;;;;;9.80;7.80;;;;;;;13.78;100.00;100298.33;104892;1266;83489;-59
2023/06/17 00:34:53;;;;;;;9.70;8.40;;;;;;;13.78;100.00;100295.02;104911;1264;73987;-59
2023/06/17 00:37:22;;;;;;;10.40;9.00;;;;;;;13.80;100.00;100293.14;104927;1260;69091;-59
2023/06/17 00:39:51;;;;;;;11.40;8.30;;;;;;;13.81;100.00;100293.27;104886;1260;69162;-59
2023/06/17 00:42:20;;;;;;;10.40;8.20;;;;;;;13.81;100.00;100288.51;104749;1266;75721;-57
2023/06/17 00:44:52;;;;;;;8.70;7.80;;;;;;;13.80;100.00;100284.36;104906;1260;83542;-59
2023/06/17 00:47:20;;;;;;;9.50;8.20;;;;;;;13.79;100.00;100286.35;104878;1261;72998;-55
2023/06/17 00:49:53;;;;;;;13.10;7.90;;;;;;;13.78;100.00;100282.55;104864;1264;69237;-56
2023/06/17 00:52:33;;;;;;;8.70;7.80;;;;;;;13.78;100.00;100283.79;104819;1261;69238;-60
2023/06/17 00:55:13;;;;;;;9.80;7.30;;;;;;;13.77;100.00;100277.13;104785;1261;74766;-59
2023/06/17 00:57:41;;;;;;;10.80;8.50;;;;;;;13.76;100.00;100277.73;104855;1260;83446;-62
2023/06/17 01:00:14;;;;;;;8.30;7.50;;;;;;;13.77;100.00;100276.46;104796;1263;73675;-59
2023/06/17 01:02:46;;;;;;;11.10;8.20;;;;;;;13.74;100.00;100272.55;105029;1260;69133;-58
2023/06/17 01:05:16;;;;;;;8.50;7.60;;;;;;;13.73;100.00;100271.92;104996;1259;69126;-59
2023/06/17 01:08:33;;;;;;;9.50;8.10;;;;;;;13.71;100.00;100273.06;104825;1264;76895;-59
2023/06/17 01:11:06;;;;;;;9.80;7.80;;;;;;;13.71;100.00;100270.77;104905;1264;82456;-60
2023/06/17 01:13:37;;;;;;;9.40;7.30;;;;;;;13.72;100.00;100268.65;104975;1259;73881;-60
2023/06/17 01:16:07;;;;;;;10.20;8.50;;;;;;;13.74;100.00;100268.15;104827;1260;69190;-60
2023/06/17 01:18:36;;;;;;;9.40;8.30;;;;;;;13.76;100.00;100273.31;104808;1260;69193;-58
2023/06/17 01:21:06;;;;;;;9.10;7.40;;;;;;;13.75;100.00;100273.38;104851;1267;75939;-62
2023/06/17 01:23:37;;;;;;;11.80;8.60;;;;;;;13.75;100.00;100272.14;105003;1264;82607;-60
2023/06/17 01:26:10;;;;;;;8.90;7.90;;;;;;;13.78;100.00;100272.36;104881;1267;73868;-62
2023/06/17 01:28:40;;;;;;;11.60;8.90;;;;;;;13.81;100.00;100277.46;104791;1262;69230;-62
2023/06/17 01:31:12;;;;;;;13.30;8.80;;;;;;;13.85;100.00;100277.63;104938;1260;69190;-57
2023/06/17 01:33:45;;;;;;;9.10;8.20;;;;;;;13.86;100.00;100275.98;104856;1264;74544;-62
2023/06/17 01:36:19;;;;;;;8.30;7.50;;;;;;;13.83;100.00;100278.05;104818;1264;83262;-60
2023/06/17 01:38:51;;;;;;;8.70;7.20;;;;;;;13.80;100.00;100275.06;105007;1259;73996;-59
2023/06/17 01:41:24;;;;;;;9.70;7.30;;;;;;;13.76;100.00;100275.27;104863;1264;69061;-57
2023/06/17 01:43:54;;;;;;;8.50;7.60;;;;;;;13.75;100.00;100274.24;104813;1267;69203;-60
2023/06/17 01:46:24;;;;;;;11.00;8.30;;;;;;;13.74;100.00;100274.13;104872;1259;75732;-57
2023/06/17 01:48:55;;;;;;;11.40;8.10;;;;;;;13.75;100.00;100273.77;104829;1260;84208;-61
2023/06/17 01:51:26;;;;;;;;;;;;;;;13.74;100.00;100273.97;104903;1259;73966;-61
2023/06/17 01:53:54;;;;;;;8.80;7.90;;;;;;;13.73;100.00;100274.35;104874;1264;69214;-60
2023/06/17 01:56:23;;;;;;;9.30;7.40;;;;;;;13.74;100.00;100276.27;104778;1260;69193;-55
2023/06/17 01:58:55;;;;;;;9.40;8.30;;;;;;;13.74;100.00;100273.28;104791;1260;75844;-57
2023/06/17 02:01:26;;;;;;;10.50;8.20;;;;;;;13.73;100.00;100275.27;104855;1262;83415;-58
2023/06/17 02:03:58;;;;;;;10.80;7.90;;;;;;;13.69;100.00;100271.23;104832;1259;73675;-60
2023/06/17 02:06:30;;;;;;;9.50;8.30;;;;;;;13.68;100.00;100272.20;104828;1267;70386;-59
2023/06/17 02:09:06;;;;;;;9.50;8.00;;;;;;;13.66;100.00;100274.92;104894;1259;69126;-57
2023/06/17 02:11:37;;;;;;;13.10;9.40;;;;;;;13.64;100.00;100279.58;105017;1260;75914;-56
2023/06/17 02:14:12;;;;;;;11.20;8.50;;;;;;;13.61;100.00;100277.61;104912;1264;82576;-60
2023/06/17 02:16:45;;;;;;;12.60;8.40;;;;;;;13.58;100.00;100277.25;104955;1260;73999;-56
2023/06/17 02:19:15;;;;;;;12.80;8.70;;;;;;;13.56;100.00;100275.58;104928;1260;69205;-59
2023/06/17 02:21:51;;;;;;;10.20;8.80;;;;;;;13.57;100.00;100276.27;105011;1264;69225;-59
2023/06/17 02:24:21;;;;;;;9.30;8.30;;;;;;;13.55;100.00;100277.05;105017;1259;74757;-58
2023/06/17 02:26:49;;;;;;;;;;;;;;;13.56;100.00;100279.77;104988;1264;83674;-56
2023/06/17 02:29:18;;;;;;;9.70;8.30;;;;;;;13.55;100.00;100281.77;104971;1264;72758;-59
2023/06/17 02:31:48;;;;;;;11.80;9.00;;;;;;;13.57;100.00;100280.48;105011;1260;69137;-59
2023/06/17 02:34:19;;;;;;;9.50;8.30;;;;;;;13.57;100.00;100275.92;104873;1267;69305;-59
2023/06/17 02:36:50;;;;;;;9.80;8.50;;;;;;;13.59;100.00;100277.36;104820;1259;75729;-57
2023/06/17 02:39:22;;;;;;;9.70;8.40;;;;;;;13.58;100.00;100276.01;104803;1260;83508;-58
2023/06/17 02:41:51;;;;;;;12.00;8.80;;;;;;;13.61;100.00;100277.08;104789;1262;73936;-55
2023/06/17 02:44:20;;;;;;;12.50;8.40;;;;;;;13.64;100.00;100280.15;104919;1264;69232;-58
2023/06/17 02:46:51;;;;;;;11.40;8.60;;;;;;;13.63;100.00;100281.24;104829;1261;69220;-58
2023/06/17 02:49:20;;;;;;;13.00;10.10;;;;;;;13.63;100.00;100278.95;104903;1264;74625;-58
2023/06/17 02:51:51;;;;;;;11.20;9.30;;;;;;;13.63;100.00;100277.72;104982;1261;82504;-59
2023/06/17 02:54:20;;;;;;;10.10;8.60;;;;;;;13.63;100.00;100274.57;104933;1260;73913;-60
2023/06/17 02:56:49;;;;;;;9.90;8.90;;;;;;;13.60;100.00;100276.06;104897;1261;69196;-57
2023/06/17 02:59:18;;;;;;;9.40;8.40;;;;;;;13.59;100.00;100273.52;104828;1266;69145;-59
2023/06/17 03:01:48;;;;;;;9.80;8.90;;;;;;;13.59;100.00;100271.06;104861;1262;75936;-61
2023/06/17 03:04:20;;;;;;;11.80;8.50;;;;;;;13.58;100.00;100270.05;104860;1265;83681;-59
2023/06/17 03:06:50;;;;;;;10.30;9.00;;;;;;;13.57;100.00;100269.01;104806;1265;73658;-56
2023/06/17 03:09:20;;;;;;;12.60;8.90;;;;;;;13.58;100.00;100266.73;104838;1260;69364;-57
2023/06/17 03:11:49;;;;;;;11.90;9.20;;;;;;;13.58;100.00;100269.19;104929;1260;69087;-61
2023/06/17 03:14:19;;;;;;;12.70;8.50;;;;;;;13.59;100.00;100268.77;104925;1260;74899;-57
2023/06/17 03:16:48;;;;;;;12.90;9.40;;;;;;;13.58;100.00;100267.58;104895;1259;82366;-60
2023/06/17 03:19:21;;;;;;;10.40;8.60;;;;;;;13.60;100.00;100264.50;104984;1259;73060;-59
2023/06/17 03:21:50;;;;;;;12.20;8.70;;;;;;;13.64;100.00;100270.11;104877;1259;69155;-58
2023/06/17 03:24:20;;;;;;;11.10;9.30;;;;;;;13.64;100.00;100271.66;104800;1266;69160;-58
2023/06/17 03:26:54;;;;;;;13.10;9.70;;;;;;;13.67;100.00;100270.12;104765;1260;74800;-58
2023/06/17 03:29:24;;;;;;;11.60;9.30;;;;;;;13.69;100.00;100271.77;105014;1259;83770;-61
2023/06/17 03:31:56;;;;;;;10.20;8.70;;;;;;;13.71;100.00;100269.92;104902;1259;72840;-58
2023/06/17 03:34:28;;;;;;;13.90;9.30;;;;;;;13.71;100.00;100270.59;104918;1259;69020;-58
2023/06/17 03:36:57;;;;;;;9.90;8.30;;;;;;;13.71;100.00;100268.87;104938;1259;69137;-59
2023/06/17 03:39:31;;;;;;;11.00;8.50;;;;;;;13.73;100.00;100271.23;104834;1262;74885;-58
2023/06/17 03:42:00;;;;;;;9.20;8.30;;;;;;;13.75;100.00;100275.88;104832;1265;83313;-58
2023/06/17 03:44:29;;;;;;;11.70;8.30;;;;;;;13.76;100.00;100275.94;104743;1262;72881;-60
2023/06/17 03:47:02;;;;;;;12.20;8.10;;;;;;;13.77;100.00;100276.09;104944;1260;69578;-60
2023/06/17 03:49:31;;;;;;;9.60;8.10;;;;;;;13.78;100.00;100272.73;104996;1260;69202;-57
2023/06/17 03:52:01;;;;;;;11.00;8.50;;;;;;;13.78;100.00;100274.97;104952;1264;73989;-58
2023/06/17 03:54:33;;;;;;;10.50;7.50;;;;;;;13.79;100.00;100275.44;105065;1260;83442;-57
2023/06/17 03:57:03;;;;;;;10.30;7.90;;;;;;;13.84;100.00;100278.36;104904;1261;73611;-58
2023/06/17 03:59:31;;;;;;;10.60;8.70;;;;;;;13.87;100.00;100277.51;104871;1259;69123;-58
2023/06/17 04:02:09;;;;;;;12.10;8.40;;;;;;;13.88;100.00;100277.44;104903;1262;69211;-57
2023/06/17 04:04:39;;;;;;;8.60;7.70;;;;;;;13.90;100.00;100279.45;104997;1260;75437;-58
2023/06/17 04:07:09;;;;;;;8.90;7.70;;;;;;;13.92;100.00;100278.48;104941;1260;83316;-54
2023/06/17 04:09:40;;;;;;;12.20;7.60;;;;;;;13.95;100.00;100278.31;105008;1259;74228;-59
2023/06/17 04:12:28;;;;;;;13.30;8.00;;;;;;;14.00;100.00;100279.99;104900;1263;69160;-57
2023/06/17 04:14:57;;;;;;;11.10;8.40;;;;;;;14.00;100.00;100278.91;104844;1259;69219;-59
2023/06/17 04:17:26;;;;;;;9.10;7.60;;;;;;;14.02;100.00;100281.98;104944;1260;75826;-56
2023/06/17 04:19:57;;;;;;;10.20;7.90;;;;;;;14.04;100.00;100282.39;105063;1264;83407;-59
2023/06/17 04:22:25;;;;;;;10.60;8.50;;;;;;;14.07;100.00;100281.53;104917;1260;74038;-59
2023/06/17 04:24:55;;;;;;;12.70;8.40;;;;;;;14.11;100.00;100279.04;105002;1262;69195;-60
2023/06/17 04:27:25;;;;;;;11.80;8.40;;;;;;;14.17;100.00;100278.03;104928;1260;69234;-64
2023/06/17 04:29:56;;;;;;;11.00;7.90;;;;;;;14.21;100.00;100278.35;104905;1266;75948;-59
2023/06/17 04:32:28;;;;;;;9.10;7.50;;;;;;;14.23;100.00;100277.48;104876;1259;82030;-63
2023/06/17 04:34:57;;;;;;;9.10;8.10;;;;;;;14.27;100.00;100278.36;104895;1264;72136;-61
2023/06/17 04:37:30;;;;;;;12.10;8.40;;;;;;;14.33;100.00;100278.20;104945;1264;69073;-59
2023/06/17 04:39:59;;;;;;;9.50;8.00;;;;;;;14.39;100.00;100281.05;104913;1264;69269;-60
2023/06/17 04:42:33;;;;;;;12.90;8.70;;;;;;;14.45;100.00;100284.56;105009;1259;75913;-62
2023/06/17 04:45:04;;;;;;;11.60;8.50;;;;;;;14.50;100.00;100286.22;104946;1260;83209;-61
2023/06/17 04:47:36;;;;;;;9.80;8.20;;;;;;;14.55;100.00;100290.73;104839;1268;74011;-61
2023/06/17 04:50:05;;;;;;;12.20;8.70;;;;;;;14.61;100.00;100290.44;104826;1263;69252;-61
2023/06/17 04:52:34;;;;;;;11.50;8.20;;;;;;;14.67;100.00;100290.07;104820;1260;69222;-60
2023/06/17 04:55:05;;;;;;;11.20;8.80;;;;;;;14.74;100.00;100294.96;104842;1260;74461;-55
2023/06/17 04:57:34;;;;;;;11.40;7.90;;;;;;;14.81;100.00;100295.79;105062;1259;82089;-55
2023/06/17 05:00:05;;;;;;;11.10;9.10;;;;;;;14.88;100.00;100297.34;105007;1264;73697;-57
2023/06/17 05:02:34;;;;;;;10.10;8.40;;;;;;;14.95;100.00;100295.02;105053;1260;69529;-58
2023/06/17 05:05:05;;;;;;;9.70;8.70;;;;;;;15.01;100.00;100294.13;105016;1264;69122;-58
2023/06/17 05:07:35;;;;;;;9.80;8.40;;;;;;;15.07;100.00;100295.00;104939;1260;74789;-56
2023/06/17 05:10:05;;;;;;;9.80;8.60;;;;;;;15.15;100.00;100294.55;104965;1262;83419;-54
2023/06/17 05:12:35;;;;;;;9.00;8.10;;;;;;;15.22;100.00;100295.44;104919;1263;74133;-53
2023/06/17 05:15:04;;;;;;;13.20;8.90;;;;;;;15.26;100.00;100296.59;104793;1267;69305;-53
2023/06/17 05:17:33;;;;;;;10.40;8.00;;;;;;;15.28;100.00;100300.00;104842;1260;69133;-54
2023/06/17 05:20:02;;;;;;;10.20;8.90;;;;;;;15.29;100.00;100299.58;105076;1262;75517;-53
2023/06/17 05:22:31;;;;;;;9.90;8.70;;;;;;;15.30;100.00;100298.96;104950;1264;83294;-54
2023/06/17 05:25:00;;;;;;;9.90;8.90;;;;;;;15.30;100.00;100295.29;104938;1259;74033;-50
2023/06/17 05:27:29;;;;;;;10.30;8.40;;;;;;;15.29;99.96;100296.39;105026;1264;69619;-54
2023/06/17 05:29:58;;;;;;;15.40;9.80;;;;;;;15.29;100.00;100296.92;104927;1263;69185;-55
2023/06/17 05:32:26;;;;;;;11.20;9.10;;;;;;;15.28;99.66;100303.13;104934;1260;75512;-51
2023/06/17 05:34:55;;;;;;;13.60;10.40;;;;;;;15.24;99.49;100302.53;105069;1259;84121;-53
2023/06/17 05:37:24;;;;;;;11.10;10.00;;;;;;;15.22;99.60;100302.45;104900;1260;73642;-56
2023/06/17 05:39:52;;;;;;;13.20;10.20;;;;;;;15.21;99.58;100302.85;105081;1260;69784;-51
2023/06/17 05:42:21;;;;;;;13.60;10.40;;;;;;;15.20;99.42;100305.21;104996;1259;69098;-55
2023/06/17 05:44:49;;;;;;;12.90;10.20;;;;;;;15.18;99.71;100307.92;104939;1259;76099;-50
2023/06/17 05:47:18;;;;;;;12.60;10.70;;;;;;;15.19;99.51;100307.02;104966;1260;83529;-54
2023/06/17 05:49:46;;;;;;;12.60;10.90;;;;;;;15.15;98.96;100308.64;104873;1259;72735;-55
2023/06/17 05:52:15;;;;;;;15.20;11.40;;;;;;;15.10;98.91;100317.04;105032;1264;69219;-53
2023/06/17 05:54:44;;;;;;;12.80;10.60;;;;;;;15.01;98.36;100318.23;105023;1261;69215;-54
2023/06/17 05:57:12;;;;;;;14.40;11.00;;;;;;;14.89;98.03;100318.71;104724;1260;319145;-50
2023/06/17 05:59:42;;;;;;;13.90;10.90;;;;;;;14.82;98.09;100321.77;105222;1262;83308;-56
2023/06/17 06:02:10;;;;;;;12.50;10.80;;;;;;;14.77;98.30;100325.26;104931;1264;74105;-54
2023/06/17 06:04:39;;;;;;;13.90;12.50;;;;;;;14.73;98.30;100325.95;104828;1268;69208;-51
2023/06/17 06:07:07;;;;;;;14.00;11.80;;;;;;;14.65;97.99;100320.25;105067;1266;69183;-53
2023/06/17 06:09:36;;;;;;;15.90;12.10;;;;;;;14.62;98.62;100319.38;104865;1265;75668;-56
2023/06/17 06:12:06;;;;;;;14.00;11.90;;;;;;;14.63;98.86;100319.33;105100;1264;83136;-57
2023/06/17 06:14:34;;;;;;;14.10;11.80;;;;;;;14.63;99.04;100318.44;105047;1264;73803;-57
2023/06/17 06:17:04;;;;;;;17.20;12.30;;;;;;;14.65;99.28;100319.21;105095;1260;69089;-56
2023/06/17 06:19:33;;;;;;;13.90;11.80;;;;;;;14.70;99.55;100322.60;105157;1264;69167;-56
2023/06/17 06:22:02;;;;;;;12.70;11.40;;;;;;;14.81;99.87;100323.98;104855;1260;74632;-52
2023/06/17 06:24:30;;;;;;;13.80;12.30;;;;;;;14.91;99.93;100324.98;104845;1265;83723;-58
2023/06/17 06:26:59;;;;;;;13.60;11.90;;;;;;;15.06;99.79;100323.80;104992;1260;73378;-57
2023/06/17 06:29:28;;;;;;;12.10;10.40;;;;;;;15.21;99.87;100320.97;105027;1261;69336;-55
2023/06/17 06:31:56;;;;;;;12.50;11.20;;;;;;;15.38;99.70;100324.05;104875;1265;69420;-54
2023/06/17 06:34:25;;;;;;;13.00;9.60;;;;;;;15.54;99.48;100318.19;105021;1264;75384;-58
2023/06/17 06:36:58;;;;;;;12.40;10.70;;;;;;;15.68;99.23;100315.59;105059;1259;83213;-58
2023/06/17 06:39:26;;;;;;;12.20;10.70;;;;;;;15.81;98.83;100317.30;104899;1262;72502;-59
2023/06/17 06:41:56;;;;;;;12.60;10.30;;;;;;;15.94;98.62;100324.27;105105;1264;69228;-58
2023/06/17 06:44:44;;;;;;;11.50;10.30;;;;;;;16.09;98.34;100327.40;104844;1267;69378;-55
2023/06/17 06:47:16;;;;;;;11.70;10.50;;;;;;;16.23;98.13;100328.14;104821;1259;74710;-57
2023/06/17 06:49:44;;;;;;;12.20;9.60;;;;;;;16.34;97.69;100327.51;105121;1264;82678;-56
2023/06/17 06:52:14;;;;;;;14.20;11.40;;;;;;;16.41;97.69;100325.27;105011;1260;73917;-58
2023/06/17 06:54:43;;;;;;;11.00;9.80;;;;;;;16.44;96.92;100327.88;105146;1264;69190;-56
2023/06/17 06:57:12;;;;;;;12.80;10.50;;;;;;;16.44;96.84;100329.67;105184;1261;69195;-59
2023/06/17 06:59:40;;;;;;;11.60;10.40;;;;;;;16.51;96.97;100334.19;105143;1262;76164;-59
2023/06/17 07:02:10;;;;;;;10.80;9.40;;;;;;;16.63;96.92;100336.06;105014;1264;82560;-59
2023/06/17 07:04:40;;;;;;;9.80;8.30;;;;;;;16.71;96.67;100330.79;105051;1264;73420;-58
2023/06/17 07:07:09;;;;;;;10.00;8.60;;;;;;;16.78;96.46;100334.07;104932;1267;69660;-58
2023/06/17 07:09:39;;;;;;;9.00;8.00;;;;;;;16.87;96.38;100334.39;105052;1262;69196;-59
2023/06/17 07:12:08;;;;;;;8.60;7.70;;;;;;;16.93;95.60;100336.29;105039;1261;75736;-60
2023/06/17 07:14:37;;;;;;;5.80;5.10;;;;;;;16.93;94.69;100337.89;105102;1261;82583;-61
2023/06/17 07:17:06;;;;;;;8.40;7.50;;;;;;;16.87;94.00;100336.14;104948;1259;72812;-60
2023/06/17 07:19:35;;;;;;;9.00;7.70;;;;;;;16.84;93.66;100338.60;104865;1263;69211;-61
2023/06/17 07:22:04;;;;;;;8.40;7.50;;;;;;;16.85;93.59;100335.73;105044;1260;69099;-58
2023/06/17 07:24:32;;;;;;;8.60;7.70;;;;;;;16.90;94.12;100337.35;105022;1266;76403;-60
2023/06/17 07:27:01;;;;;;;7.80;7.00;;;;;;;16.95;93.72;100340.92;104816;1267;83547;-61
2023/06/17 07:29:30;;;;;;;7.70;7.00;;;;;;;16.90;93.00;100343.55;104883;1265;73804;-58
2023/06/17 07:31:59;;;;;;;9.40;6.70;;;;;;;16.79;92.32;100338.98;105086;1259;69285;-61
2023/06/17 07:34:28;;;;;;;7.60;6.80;;;;;;;16.78;92.49;100335.30;104853;1267;69195;-61
2023/06/17 07:36:56;;;;;;;7.80;7.00;;;;;;;16.85;92.60;100331.15;104839;1260;75852;-61
2023/06/17 07:39:25;;;;;;;7.80;6.90;;;;;;;17.01;93.35;100327.34;104812;1262;83414;-61
2023/06/17 07:41:54;;;;;;;7.00;6.30;;;;;;;17.14;93.38;100326.45;105125;1264;73805;-61
2023/06/17 07:44:22;;;;;;;7.40;6.60;;;;;;;17.23;93.14;100322.54;105269;1260;69246;-61
2023/06/17 07:46:51;;;;;;;7.60;6.60;;;;;;;17.33;92.91;100322.40;104858;1263;69182;-60
2023/06/17 07:49:19;;;;;;;6.90;6.10;;;;;;;17.37;92.26;100316.27;104921;1259;75700;-58
2023/06/17 07:51:48;;;;;;;6.80;5.90;;;;;;;17.45;91.73;100317.20;104941;1259;82517;-63
2023/06/17 07:54:16;;;;;;;5.90;5.30;;;;;;;17.58;91.23;100317.18;104928;1259;72823;-63
2023/06/17 07:56:45;;;;;;;7.90;6.20;;;;;;;17.72;91.09;100310.89;105166;1264;69172;-62
2023/06/17 07:59:13;;;;;;;5.60;5.10;;;;;;;17.87;91.30;100309.58;104972;1264;68965;-62
2023/06/17 08:01:43;;;;;;;5.50;4.70;;;;;;;17.94;90.48;100310.17;105036;1260;74661;-63
2023/06/17 08:04:11;;;;;;;5.30;4.70;;;;;;;17.94;89.76;100308.91;105056;1264;83740;-62
2023/06/17 08:06:40;;;;;;;6.60;5.30;;;;;;;18.01;89.42;100308.05;105047;1259;72869;-63
2023/06/17 08:09:09;;;;;;;6.70;5.90;;;;;;;18.16;89.37;100308.06;105077;1264;69139;-63
2023/06/17 08:11:37;;;;;;;5.20;4.70;;;;;;;18.30;89.00;100303.42;104916;1265;69209;-63
2023/06/17 08:14:06;;;;;;;6.50;5.50;;;;;;;18.43;89.02;100297.88;105000;1260;74807;-63
2023/06/17 08:16:34;;;;;;;5.90;5.30;;;;;;;18.48;88.22;100304.89;105020;1262;83574;-63
2023/06/17 08:19:02;;;;;;;6.20;5.60;;;;;;;18.40;87.15;100303.23;104938;1259;72814;-67
2023/06/17 08:21:31;;;;;;;5.70;5.00;;;;;;;18.29;86.40;100301.53;105029;1264;69132;-66
2023/06/17 08:24:19;;;;;;;6.00;5.40;;;;;;;18.22;86.46;100299.68;105029;1259;69092;-67
2023/06/17 08:26:48;;;;;;;7.00;5.00;;;;;;;18.29;86.29;100295.52;105001;1260;76239;-64
2023/06/17 08:29:17;;;;;;;5.90;5.40;;;;;;;18.44;86.07;100295.29;105115;1260;82539;-65
2023/06/17 08:31:48;;;;;;;6.70;5.70;;;;;;;18.58;86.13;100301.23;105029;1259;73046;-65
2023/06/17 08:34:16;;;;;;;7.70;5.70;;;;;;;18.58;85.43;100305.27;104956;1259;69114;-65
2023/06/17 08:36:49;;;;;;;6.90;5.70;;;;;;;18.52;84.78;100306.23;105017;1260;69269;-65
2023/06/17 08:39:17;;;;;;;5.90;5.40;;;;;;;18.47;84.66;100304.81;105001;1259;75824;-65
2023/06/17 08:41:46;;;;;;;6.20;5.10;;;;;;;18.44;84.37;100304.71;105027;1259;82521;-67
2023/06/17 08:44:15;;;;;;;5.20;4.70;;;;;;;18.48;84.58;100301.05;104850;1260;73971;-65
2023/06/17 08:46:45;;;;;;;4.60;4.20;;;;;;;18.58;84.01;100301.73;104870;1267;69157;-64
2023/06/17 08:49:15;;;;;;;5.30;4.90;;;;;;;18.66;83.69;100305.27;104976;1261;69180;-64
2023/06/17 08:51:44;;;;;;;5.30;4.80;;;;;;;18.68;83.23;100305.98;104916;1260;75735;-65
2023/06/17 08:54:12;;;;;;;4.90;4.50;;;;;;;18.62;82.89;100305.37;105063;1264;82958;-66
2023/06/17 08:56:41;;;;;;;7.20;4.40;;;;;;;18.63;82.97;100303.49;104863;1267;74039;-65
2023/06/17 08:59:10;;;;;;;5.90;5.00;;;;;;;18.75;82.97;100306.59;105007;1259;69205;-65
2023/06/17 09:01:40;;;;;;;5.40;4.90;;;;;;;18.96;82.98;100308.76;105067;1264;69203;-66
2023/06/17 09:04:09;;;;;;;5.10;4.60;;;;;;;19.16;82.04;100302.68;105028;1259;75941;-65
2023/06/17 09:06:37;;;;;;;5.50;4.70;;;;;;;19.28;81.64;100303.58;104993;1264;83694;-63
2023/06/17 09:09:05;;;;;;;5.20;4.70;;;;;;;19.23;80.87;100305.67;104973;1265;72754;-64
2023/06/17 09:11:34;;;;;;;6.10;3.90;;;;;;;19.15;80.19;100305.76;104975;1261;69159;-64
2023/06/17 09:14:03;;;;;;;5.00;4.10;;;;;;;19.12;79.63;100305.63;104961;1265;69189;-64
2023/06/17 09:16:35;;;;;;;5.90;4.90;;;;;;;19.22;80.00;100305.74;105051;1265;76066;-68
2023/06/17 09:19:06;;;;;;;5.30;4.80;;;;;;;19.39;79.51;100303.63;105032;1264;83409;-64
2023/06/17 09:21:35;;;;;;;5.00;4.50;;;;;;;19.55;79.09;100297.27;104988;1265;73951;-64
2023/06/17 09:24:05;;;;;;;4.70;4.30;;;;;;;19.78;79.03;100292.11;105101;1265;69209;-64
2023/06/17 09:26:36;;;;;;;4.70;4.20;;;;;;;19.96;79.37;100294.09;105041;1265;69229;-64
2023/06/17 09:29:06;;;;;;;4.70;4.30;;;;;;;20.09;78.99;100300.02;104831;1260;74656;-68
2023/06/17 09:31:49;;;;;;;4.90;4.00;;;;;;;20.17;78.46;100296.77;105062;1259;82919;-66
2023/06/17 09:34:18;;;;;;;5.90;4.30;;;;;;;20.32;78.33;100290.77;104999;1259;73735;-63
2023/06/17 09:36:52;;;;;;;4.10;3.80;;;;;;;20.47;77.77;100289.00;105016;1265;69170;-61
2023/06/17 09:39:28;;;;;;;4.30;3.70;;;;;;;20.68;77.39;100287.35;105010;1264;69206;-62
2023/06/17 09:41:56;;;;;;;4.90;3.30;;;;;;;20.92;76.22;100284.19;104999;1259;75675;-63
2023/06/17 09:44:25;;;;;;;4.20;3.90;;;;;;;21.15;76.34;100283.85;105044;1260;83182;-63
2023/06/17 09:47:04;;;;;;;3.50;3.20;;;;;;;21.37;76.32;100287.25;105021;1260;72743;-62
2023/06/17 09:49:35;;;;;;;3.90;3.50;;;;;;;21.42;75.22;100282.41;105081;1259;69219;-62
2023/06/17 09:52:11;;;;;;;4.30;3.50;;;;;;;21.37;74.55;100281.68;105012;1264;69143;-66
2023/06/17 09:54:41;;;;;;;3.60;3.30;;;;;;;21.39;74.36;100281.56;104990;1259;75585;-67
2023/06/17 09:57:13;;;;;;;2.90;2.60;;;;;;;21.35;73.05;100279.56;104885;1262;83136;-64
2023/06/17 09:59:43;;;;;;;3.30;3.00;;;;;;;21.22;72.45;100275.27;104817;1262;73962;-64
2023/06/17 10:02:12;;;;;;;7.10;3.70;;;;;;;21.17;72.55;100275.67;104800;1260;69154;-69
2023/06/17 10:04:43;;;;;;;3.90;2.80;;;;;;;21.33;72.75;100276.16;104876;1264;69177;-68
2023/06/17 10:07:12;;;;;;;4.20;3.20;;;;;;;21.50;72.51;100278.17;104847;1260;75850;-66
2023/06/17 10:09:41;;;;;;;3.60;3.30;;;;;;;21.64;72.03;100276.44;104874;1260;82646;-68
2023/06/17 10:12:10;;;;;;;3.20;2.90;;;;;;;21.63;71.78;100276.16;105075;1260;73725;-67
2023/06/17 10:14:39;;;;;;;3.20;2.90;;;;;;;21.57;70.95;100280.34;105094;1259;69189;-67
2023/06/17 10:17:09;;;;;;;3.20;2.90;;;;;;;21.51;70.14;100278.05;105121;1260;69143;-66
2023/06/17 10:19:38;;;;;;;5.50;3.40;;;;;;;21.53;70.10;100274.52;104881;1265;75506;-67
2023/06/17 10:22:10;;;;;;;6.30;3.40;;;;;;;21.70;69.87;100270.00;104869;1259;82531;-69
2023/06/17 10:24:39;;;;;;;3.60;3.20;;;;;;;21.98;69.93;100270.06;104999;1263;74013;-70
2023/06/17 10:27:08;;;;;;;4.60;3.10;;;;;;;22.33;70.01;100268.63;104936;1265;69219;-67
2023/06/17 10:29:41;;;;;;;4.00;3.50;;;;;;;22.56;68.94;100267.70;105093;1260;69109;-68
2023/06/17 10:32:19;;;;;;;3.30;3.00;;;;;;;22.87;68.51;100269.05;104983;1262;75395;-68
2023/06/17 10:35:06;;;;;;;3.70;2.90;;;;;;;23.13;67.85;100263.77;104950;1260;83524;-67
2023/06/17 10:37:41;;;;;;;3.00;2.80;;;;;;;23.43;66.44;100261.71;104948;1265;73792;-69
2023/06/17 10:40:30;;;;;;;3.20;2.90;;;;;;;23.41;65.55;100264.80;105041;1260;69200;-72
2023/06/17 10:43:02;;;;;;;4.30;3.20;;;;;;;23.15;64.84;100266.07;105078;1259;69251;-70
2023/06/17 10:45:48;;;;;;;3.20;2.90;;;;;;;22.83;64.62;100269.33;105084;1260;75632;-69
2023/06/17 10:48:20;;;;;;;3.70;3.40;;;;;;;22.56;64.51;100270.90;104950;1259;82483;-72
2023/06/17 10:51:09;;;;;;;4.50;3.50;;;;;;;22.36;64.54;100263.75;105008;1265;73863;-71
2023/06/17 10:53:46;;;;;;;3.50;3.00;;;;;;;22.20;64.49;100267.30;104964;1264;69767;-68
2023/06/17 10:56:15;;;;;;;3.70;3.30;;;;;;;22.04;64.37;100269.77;104859;1259;69237;-67
2023/06/17 10:58:47;;;;;;;3.70;3.40;;;;;;;22.00;64.76;100264.93;105058;1265;75129;-70
2023/06/17 11:01:16;;;;;;;4.80;3.90;;;;;;;22.10;65.09;100264.21;105042;1260;82361;-70
2023/06/17 11:03:44;;;;;;;3.50;3.20;;;;;;;22.24;65.00;100261.95;104976;1259;73959;-65
2023/06/17 11:06:13;;;;;;;3.50;3.00;;;;;;;22.37;65.05;100263.67;105023;1265;69221;-65
2023/06/17 11:08:42;;;;;;;3.00;2.80;;;;;;;22.51;64.25;100263.16;105057;1265;69204;-67
2023/06/17 11:11:13;;;;;;;3.80;2.50;;;;;;;22.55;63.78;100261.96;104945;1259;75700;-67
2023/06/17 11:13:44;;;;;;;4.00;2.60;;;;;;;22.64;63.56;100261.60;104994;1264;83538;-65
2023/06/17 11:16:13;;;;;;;3.30;2.70;;;;;;;22.88;63.89;100256.59;104973;1262;73148;-67
2023/06/17 11:18:42;;;;;;;3.40;2.40;;;;;;;23.20;63.01;100254.05;105047;1259;69100;-68
2023/06/17 11:21:11;;;;;;;3.30;2.80;;;;;;;23.69;63.40;100245.61;105055;1264;69252;-64
2023/06/17 11:23:42;;;;;;;2.70;2.50;;;;;;;24.09;62.19;100245.38;105103;1259;74770;-69
2023/06/17 11:26:10;;;;;;;4.10;2.90;;;;;;;24.45;61.76;100244.20;105015;1265;82314;-65